CYZ9016 ZSNJ-ZHHH
Flight info
| Callsign | CYZ9016 |
|---|---|
| Flight time | 1h 10m |
| Altitude | 21700 |
| Route | SUNBO W163 HFE W50 XSH XSH5T |
| Aircraft | B738/M-SDE2E3FGHIRWXY/LB1 |
Departure
| Time | 2026-04-22 13:54 |
|---|---|
| Airport | Nanjing Lukou International Airport (ZSNJ) |
Arrival
| Time | 2026-04-22 15:04 |
|---|---|
| Airport | Wuhan Tianhe International Airport (ZHHH) |
| Time | Latitude | Longitude | Altitude | Speed | Heading |
|---|---|---|---|---|---|
| 2026-04-22 13:23 | 31.72533 | 118.84587 | 58 ft | 0 kts | 328° |
| 2026-04-22 13:43 | 31.72520 | 118.84597 | 49 ft | 4 kts | 328° |
| 2026-04-22 13:43 | 31.72501 | 118.84612 | 49 ft | 4 kts | 330° |
| 2026-04-22 13:43 | 31.72479 | 118.84617 | 55 ft | 4 kts | 29° |
| 2026-04-22 13:44 | 31.72460 | 118.84596 | 49 ft | 4 kts | 55° |
| 2026-04-22 13:44 | 31.72452 | 118.84582 | 52 ft | 0 kts | 58° |
| 2026-04-22 13:46 | 31.72453 | 118.84583 | 52 ft | 1 kts | 58° |
| 2026-04-22 13:46 | 31.72460 | 118.84596 | 49 ft | 3 kts | 58° |
| 2026-04-22 13:47 | 31.72473 | 118.84622 | 49 ft | 4 kts | 58° |
| 2026-04-22 13:47 | 31.72493 | 118.84658 | 52 ft | 6 kts | 58° |
| 2026-04-22 13:47 | 31.72517 | 118.84704 | 56 ft | 7 kts | 58° |
| 2026-04-22 13:47 | 31.72546 | 118.84759 | 56 ft | 9 kts | 58° |
| 2026-04-22 13:48 | 31.72584 | 118.84829 | 53 ft | 11 kts | 58° |
| 2026-04-22 13:48 | 31.72616 | 118.84866 | 57 ft | 4 kts | 17° |
| 2026-04-22 13:48 | 31.72644 | 118.84861 | 53 ft | 4 kts | 335° |
| 2026-04-22 13:48 | 31.72669 | 118.84844 | 54 ft | 4 kts | 329° |
| 2026-04-22 13:49 | 31.72699 | 118.84822 | 58 ft | 6 kts | 328° |
| 2026-04-22 13:49 | 31.72735 | 118.84795 | 51 ft | 6 kts | 327° |
| 2026-04-22 13:49 | 31.72774 | 118.84766 | 54 ft | 7 kts | 327° |
| 2026-04-22 13:49 | 31.72816 | 118.84735 | 54 ft | 7 kts | 327° |
| 2026-04-22 13:50 | 31.72862 | 118.84700 | 52 ft | 9 kts | 327° |
| 2026-04-22 13:50 | 31.72927 | 118.84653 | 54 ft | 12 kts | 328° |
| 2026-04-22 13:50 | 31.73000 | 118.84604 | 58 ft | 8 kts | 342° |
| 2026-04-22 13:50 | 31.73031 | 118.84608 | 53 ft | 3 kts | 28° |
| 2026-04-22 13:51 | 31.73049 | 118.84632 | 56 ft | 5 kts | 55° |
| 2026-04-22 13:51 | 31.73075 | 118.84678 | 55 ft | 9 kts | 57° |
| 2026-04-22 13:51 | 31.73112 | 118.84744 | 54 ft | 8 kts | 44° |
| 2026-04-22 13:51 | 31.73148 | 118.84755 | 56 ft | 5 kts | 351° |
| 2026-04-22 13:52 | 31.73185 | 118.84731 | 54 ft | 8 kts | 328° |
| 2026-04-22 13:52 | 31.73244 | 118.84687 | 52 ft | 12 kts | 327° |
| 2026-04-22 13:52 | 31.73322 | 118.84629 | 52 ft | 14 kts | 328° |
| 2026-04-22 13:52 | 31.73375 | 118.84625 | 56 ft | 4 kts | 31° |
| 2026-04-22 13:53 | 31.73394 | 118.84658 | 54 ft | 7 kts | 58° |
| 2026-04-22 13:53 | 31.73452 | 118.84765 | 56 ft | 38 kts | 58° |
| 2026-04-22 13:53 | 31.73724 | 118.85273 | 51 ft | 107 kts | 58° |
| 2026-04-22 13:53 | 31.74229 | 118.86199 | 83 ft | 160 kts | 57° |
| 2026-04-22 13:54 | 31.74833 | 118.87364 | 758 ft | 161 kts | 56° |
| 2026-04-22 13:54 | 31.75406 | 118.88442 | 1721 ft | 157 kts | 56° |
| 2026-04-22 13:54 | 31.76019 | 118.89587 | 2170 ft | 180 kts | 57° |
| 2026-04-22 13:54 | 31.76737 | 118.90929 | 2438 ft | 206 kts | 57° |
| 2026-04-22 13:55 | 31.77523 | 118.92403 | 2859 ft | 218 kts | 57° |
| 2026-04-22 13:55 | 31.78342 | 118.93938 | 3524 ft | 223 kts | 57° |
| 2026-04-22 13:55 | 31.79168 | 118.95486 | 4289 ft | 228 kts | 57° |
| 2026-04-22 13:55 | 31.80020 | 118.97088 | 5014 ft | 232 kts | 57° |
| 2026-04-22 13:56 | 31.80887 | 118.98715 | 5737 ft | 236 kts | 57° |
| 2026-04-22 13:56 | 31.81767 | 119.00370 | 6449 ft | 241 kts | 56° |
| 2026-04-22 13:56 | 31.82662 | 119.02053 | 7123 ft | 245 kts | 57° |
| 2026-04-22 13:56 | 31.83575 | 119.03769 | 7800 ft | 250 kts | 56° |
| 2026-04-22 13:57 | 31.84505 | 119.05518 | 8479 ft | 254 kts | 56° |
| 2026-04-22 13:57 | 31.85447 | 119.07291 | 9199 ft | 257 kts | 56° |
| 2026-04-22 13:57 | 31.86392 | 119.09070 | 9879 ft | 262 kts | 56° |
| 2026-04-22 13:57 | 31.87420 | 119.10846 | 10487 ft | 265 kts | 43° |
| 2026-04-22 13:58 | 31.88968 | 119.11962 | 11102 ft | 264 kts | 13° |
| 2026-04-22 13:58 | 31.90824 | 119.12059 | 11424 ft | 278 kts | 345° |
| 2026-04-22 13:58 | 31.92623 | 119.11072 | 11610 ft | 297 kts | 320° |
| 2026-04-22 13:58 | 31.94002 | 119.09178 | 11788 ft | 316 kts | 299° |
| 2026-04-22 13:59 | 31.94723 | 119.06665 | 11943 ft | 336 kts | 276° |
| 2026-04-22 13:59 | 31.94412 | 119.03914 | 12351 ft | 348 kts | 248° |
| 2026-04-22 13:59 | 31.93112 | 119.01499 | 13071 ft | 350 kts | 235° |
| 2026-04-22 13:59 | 31.91737 | 118.99124 | 13827 ft | 351 kts | 238° |
| 2026-04-22 14:00 | 31.90418 | 118.96687 | 14492 ft | 354 kts | 239° |
| 2026-04-22 14:00 | 31.89113 | 118.94219 | 15155 ft | 357 kts | 239° |
| 2026-04-22 14:00 | 31.87800 | 118.91729 | 15836 ft | 359 kts | 239° |
| 2026-04-22 14:00 | 31.86478 | 118.89230 | 16511 ft | 361 kts | 239° |
| 2026-04-22 14:01 | 31.85159 | 118.86698 | 17171 ft | 363 kts | 243° |
| 2026-04-22 14:01 | 31.84316 | 118.83936 | 17813 ft | 364 kts | 259° |
| 2026-04-22 14:01 | 31.83993 | 118.80999 | 18629 ft | 360 kts | 263° |
| 2026-04-22 14:01 | 31.83751 | 118.78090 | 19415 ft | 356 kts | 264° |
| 2026-04-22 14:02 | 31.83524 | 118.75202 | 20142 ft | 353 kts | 264° |
| 2026-04-22 14:02 | 31.83295 | 118.72333 | 20872 ft | 351 kts | 263° |
| 2026-04-22 14:02 | 31.83057 | 118.69471 | 21401 ft | 351 kts | 263° |
| 2026-04-22 14:02 | 31.82813 | 118.66632 | 21652 ft | 349 kts | 263° |
| 2026-04-22 14:03 | 31.82563 | 118.63785 | 21647 ft | 350 kts | 263° |
| 2026-04-22 14:03 | 31.82311 | 118.60948 | 21652 ft | 349 kts | 263° |
| 2026-04-22 14:03 | 31.82056 | 118.58116 | 21658 ft | 348 kts | 262° |
| 2026-04-22 14:03 | 31.81801 | 118.55286 | 21659 ft | 348 kts | 262° |
| 2026-04-22 14:04 | 31.81545 | 118.52456 | 21654 ft | 348 kts | 262° |
| 2026-04-22 14:04 | 31.81288 | 118.49627 | 21649 ft | 348 kts | 262° |
| 2026-04-22 14:04 | 31.81031 | 118.46805 | 21657 ft | 348 kts | 262° |
| 2026-04-22 14:04 | 31.80772 | 118.43971 | 21653 ft | 348 kts | 262° |
| 2026-04-22 14:05 | 31.80513 | 118.41138 | 21654 ft | 349 kts | 262° |
| 2026-04-22 14:05 | 31.80254 | 118.38305 | 21650 ft | 349 kts | 262° |
| 2026-04-22 14:05 | 31.79732 | 118.32625 | 21653 ft | 350 kts | 263° |
| 2026-04-22 14:06 | 31.79478 | 118.29781 | 21653 ft | 350 kts | 264° |
| 2026-04-22 14:06 | 31.79359 | 118.26922 | 21662 ft | 351 kts | 267° |
| 2026-04-22 14:06 | 31.79324 | 118.24053 | 21656 ft | 351 kts | 268° |
| 2026-04-22 14:06 | 31.79302 | 118.21182 | 21660 ft | 351 kts | 268° |
| 2026-04-22 14:07 | 31.79271 | 118.18312 | 21661 ft | 351 kts | 268° |
| 2026-04-22 14:07 | 31.79228 | 118.15438 | 21652 ft | 351 kts | 268° |
| 2026-04-22 14:07 | 31.79175 | 118.12568 | 21662 ft | 351 kts | 267° |
| 2026-04-22 14:07 | 31.79119 | 118.09706 | 21655 ft | 350 kts | 267° |
| 2026-04-22 14:08 | 31.79065 | 118.06880 | 21661 ft | 350 kts | 268° |
| 2026-04-22 14:08 | 31.79013 | 118.04022 | 21660 ft | 349 kts | 268° |
| 2026-04-22 14:08 | 31.78962 | 118.01172 | 21666 ft | 349 kts | 268° |
| 2026-04-22 14:08 | 31.78912 | 117.98321 | 21660 ft | 348 kts | 268° |
| 2026-04-22 14:09 | 31.78860 | 117.95481 | 21668 ft | 348 kts | 268° |
| 2026-04-22 14:09 | 31.78808 | 117.92635 | 21666 ft | 348 kts | 268° |
| 2026-04-22 14:09 | 31.78755 | 117.89795 | 21668 ft | 347 kts | 268° |
| 2026-04-22 14:09 | 31.78702 | 117.86954 | 21669 ft | 347 kts | 268° |
| 2026-04-22 14:10 | 31.78648 | 117.84110 | 21668 ft | 348 kts | 268° |
| 2026-04-22 14:10 | 31.78593 | 117.81269 | 21674 ft | 348 kts | 268° |
| 2026-04-22 14:10 | 31.78537 | 117.78423 | 21673 ft | 348 kts | 268° |
| 2026-04-22 14:10 | 31.78481 | 117.75583 | 21672 ft | 348 kts | 268° |
| 2026-04-22 14:11 | 31.78424 | 117.72739 | 21672 ft | 348 kts | 268° |
| 2026-04-22 14:11 | 31.78367 | 117.69892 | 21673 ft | 348 kts | 268° |
| 2026-04-22 14:11 | 31.78309 | 117.67045 | 21672 ft | 348 kts | 268° |
| 2026-04-22 14:11 | 31.78250 | 117.64199 | 21675 ft | 348 kts | 268° |
| 2026-04-22 14:12 | 31.78190 | 117.61350 | 21679 ft | 348 kts | 268° |
| 2026-04-22 14:12 | 31.78130 | 117.58506 | 21680 ft | 348 kts | 268° |
| 2026-04-22 14:12 | 31.78070 | 117.55659 | 21677 ft | 349 kts | 268° |
| 2026-04-22 14:12 | 31.78008 | 117.52810 | 21679 ft | 348 kts | 268° |
| 2026-04-22 14:13 | 31.77947 | 117.49964 | 21675 ft | 348 kts | 268° |
| 2026-04-22 14:13 | 31.77884 | 117.47123 | 21682 ft | 348 kts | 268° |
| 2026-04-22 14:13 | 31.77821 | 117.44284 | 21679 ft | 347 kts | 268° |
| 2026-04-22 14:13 | 31.77758 | 117.41445 | 21678 ft | 347 kts | 268° |
| 2026-04-22 14:14 | 31.77694 | 117.38604 | 21684 ft | 347 kts | 268° |
| 2026-04-22 14:14 | 31.77629 | 117.35776 | 21684 ft | 347 kts | 268° |
| 2026-04-22 14:14 | 31.77478 | 117.32955 | 21679 ft | 346 kts | 260° |
| 2026-04-22 14:14 | 31.76859 | 117.30265 | 21690 ft | 346 kts | 251° |
| 2026-04-22 14:15 | 31.75856 | 117.27658 | 21681 ft | 347 kts | 241° |
| 2026-04-22 14:15 | 31.74492 | 117.25349 | 21696 ft | 349 kts | 236° |
| 2026-04-22 14:15 | 31.73024 | 117.23081 | 21690 ft | 349 kts | 235° |
| 2026-04-22 14:15 | 31.71540 | 117.20818 | 21693 ft | 350 kts | 235° |
| 2026-04-22 14:16 | 31.70042 | 117.18524 | 21695 ft | 350 kts | 235° |
| 2026-04-22 14:16 | 31.68585 | 117.16276 | 21691 ft | 350 kts | 235° |
| 2026-04-22 14:16 | 31.67117 | 117.13999 | 21695 ft | 350 kts | 235° |
| 2026-04-22 14:16 | 31.65652 | 117.11719 | 21695 ft | 350 kts | 235° |
| 2026-04-22 14:17 | 31.64187 | 117.09438 | 21692 ft | 350 kts | 235° |
| 2026-04-22 14:17 | 31.62722 | 117.07159 | 21687 ft | 350 kts | 235° |
| 2026-04-22 14:17 | 31.61254 | 117.04878 | 21694 ft | 350 kts | 235° |
| 2026-04-22 14:17 | 31.59772 | 117.02610 | 21691 ft | 350 kts | 234° |
| 2026-04-22 14:18 | 31.58280 | 117.00352 | 21695 ft | 350 kts | 234° |
| 2026-04-22 14:18 | 31.56786 | 116.98095 | 21697 ft | 349 kts | 234° |
| 2026-04-22 14:18 | 31.55296 | 116.95842 | 21697 ft | 349 kts | 234° |
| 2026-04-22 14:18 | 31.53807 | 116.93590 | 21695 ft | 349 kts | 234° |
| 2026-04-22 14:19 | 31.52323 | 116.91344 | 21697 ft | 349 kts | 235° |
| 2026-04-22 14:19 | 31.50835 | 116.89091 | 21701 ft | 349 kts | 234° |
| 2026-04-22 14:19 | 31.49354 | 116.86851 | 21700 ft | 348 kts | 234° |
| 2026-04-22 14:19 | 31.47867 | 116.84606 | 21705 ft | 348 kts | 235° |
| 2026-04-22 14:20 | 31.44921 | 116.80104 | 21703 ft | 348 kts | 235° |
| 2026-04-22 14:20 | 31.43450 | 116.77846 | 21706 ft | 348 kts | 235° |
| 2026-04-22 14:20 | 31.41981 | 116.75590 | 21702 ft | 348 kts | 235° |
| 2026-04-22 14:21 | 31.39041 | 116.71082 | 21705 ft | 348 kts | 235° |
| 2026-04-22 14:21 | 31.37589 | 116.68859 | 21707 ft | 348 kts | 235° |
| 2026-04-22 14:22 | 31.34646 | 116.64357 | 21717 ft | 348 kts | 235° |
| 2026-04-22 14:22 | 31.33174 | 116.62107 | 21703 ft | 348 kts | 235° |
| 2026-04-22 14:22 | 31.30232 | 116.57617 | 21710 ft | 348 kts | 235° |
| 2026-04-22 14:23 | 31.28760 | 116.55371 | 21711 ft | 348 kts | 235° |
| 2026-04-22 14:23 | 31.27289 | 116.53129 | 21721 ft | 348 kts | 235° |
| 2026-04-22 14:23 | 31.25819 | 116.50891 | 21717 ft | 347 kts | 235° |
| 2026-04-22 14:23 | 31.24348 | 116.48650 | 21728 ft | 347 kts | 235° |
| 2026-04-22 14:24 | 31.22877 | 116.46412 | 21705 ft | 347 kts | 235° |
| 2026-04-22 14:24 | 31.21408 | 116.44177 | 21724 ft | 347 kts | 235° |
| 2026-04-22 14:24 | 31.19938 | 116.41942 | 21712 ft | 346 kts | 235° |
| 2026-04-22 14:24 | 31.18472 | 116.39712 | 21693 ft | 346 kts | 235° |
| 2026-04-22 14:25 | 31.17010 | 116.37491 | 21715 ft | 346 kts | 235° |
| 2026-04-22 14:25 | 31.15545 | 116.35271 | 21732 ft | 344 kts | 235° |
| 2026-04-22 14:25 | 31.14576 | 116.33802 | 21702 ft | 345 kts | 235° |
| 2026-04-22 14:25 | 31.13111 | 116.31581 | 21715 ft | 346 kts | 235° |
| 2026-04-22 14:26 | 31.11638 | 116.29349 | 21707 ft | 346 kts | 235° |
| 2026-04-22 14:26 | 31.10167 | 116.27122 | 21719 ft | 346 kts | 235° |
| 2026-04-22 14:26 | 31.08699 | 116.24901 | 21706 ft | 346 kts | 235° |
| 2026-04-22 14:26 | 31.07233 | 116.22684 | 21708 ft | 345 kts | 235° |
| 2026-04-22 14:27 | 31.05765 | 116.20469 | 21706 ft | 344 kts | 235° |
| 2026-04-22 14:27 | 31.04301 | 116.18257 | 21712 ft | 345 kts | 235° |
| 2026-04-22 14:27 | 31.02840 | 116.16048 | 21712 ft | 344 kts | 235° |
| 2026-04-22 14:27 | 31.01373 | 116.13834 | 21695 ft | 344 kts | 235° |
| 2026-04-22 14:28 | 30.99908 | 116.11623 | 21685 ft | 344 kts | 235° |
| 2026-04-22 14:28 | 30.98446 | 116.09417 | 21701 ft | 344 kts | 235° |
| 2026-04-22 14:28 | 30.96983 | 116.07213 | 21706 ft | 345 kts | 235° |
| 2026-04-22 14:28 | 30.95512 | 116.04998 | 21709 ft | 345 kts | 235° |
| 2026-04-22 14:29 | 30.94042 | 116.02785 | 21705 ft | 346 kts | 235° |
| 2026-04-22 14:29 | 30.92573 | 116.00576 | 21706 ft | 345 kts | 235° |
| 2026-04-22 14:29 | 30.91099 | 115.98361 | 21709 ft | 345 kts | 235° |
| 2026-04-22 14:29 | 30.89630 | 115.96152 | 21703 ft | 345 kts | 235° |
| 2026-04-22 14:30 | 30.88159 | 115.93942 | 21701 ft | 345 kts | 235° |
| 2026-04-22 14:30 | 30.86688 | 115.91736 | 21690 ft | 345 kts | 235° |
| 2026-04-22 14:30 | 30.85217 | 115.89528 | 21689 ft | 344 kts | 235° |
| 2026-04-22 14:30 | 30.83759 | 115.87324 | 21693 ft | 343 kts | 236° |
| 2026-04-22 14:31 | 30.82303 | 115.85120 | 21692 ft | 343 kts | 236° |
| 2026-04-22 14:31 | 30.80852 | 115.82923 | 21694 ft | 342 kts | 235° |
| 2026-04-22 14:31 | 30.79419 | 115.80753 | 21700 ft | 342 kts | 236° |
| 2026-04-22 14:31 | 30.77970 | 115.78559 | 21697 ft | 343 kts | 235° |
| 2026-04-22 14:32 | 30.76514 | 115.76356 | 21701 ft | 343 kts | 235° |
| 2026-04-22 14:32 | 30.75060 | 115.74155 | 21695 ft | 344 kts | 235° |
| 2026-04-22 14:32 | 30.73602 | 115.71951 | 21699 ft | 344 kts | 236° |
| 2026-04-22 14:32 | 30.72143 | 115.69746 | 21697 ft | 343 kts | 235° |
| 2026-04-22 14:33 | 30.70687 | 115.67547 | 21699 ft | 343 kts | 235° |
| 2026-04-22 14:33 | 30.69229 | 115.65347 | 21693 ft | 344 kts | 235° |
| 2026-04-22 14:33 | 30.67772 | 115.63149 | 21691 ft | 344 kts | 235° |
| 2026-04-22 14:33 | 30.66316 | 115.60953 | 21697 ft | 343 kts | 235° |
| 2026-04-22 14:34 | 30.64857 | 115.58754 | 21697 ft | 343 kts | 235° |
| 2026-04-22 14:34 | 30.63397 | 115.56555 | 21701 ft | 343 kts | 235° |
| 2026-04-22 14:34 | 30.61939 | 115.54361 | 21693 ft | 343 kts | 235° |
| 2026-04-22 14:34 | 30.60482 | 115.52168 | 21696 ft | 343 kts | 235° |
| 2026-04-22 14:35 | 30.59027 | 115.49980 | 21700 ft | 343 kts | 235° |
| 2026-04-22 14:35 | 30.57570 | 115.47791 | 21698 ft | 343 kts | 235° |
| 2026-04-22 14:35 | 30.56112 | 115.45603 | 21698 ft | 343 kts | 235° |
| 2026-04-22 14:35 | 30.54653 | 115.43411 | 21703 ft | 343 kts | 235° |
| 2026-04-22 14:36 | 30.53196 | 115.41223 | 21705 ft | 343 kts | 235° |
| 2026-04-22 14:36 | 30.51739 | 115.39037 | 21697 ft | 343 kts | 235° |
| 2026-04-22 14:36 | 30.50283 | 115.36852 | 21704 ft | 343 kts | 235° |
| 2026-04-22 14:36 | 30.48824 | 115.34667 | 21705 ft | 342 kts | 235° |
| 2026-04-22 14:37 | 30.47364 | 115.32482 | 21707 ft | 343 kts | 235° |
| 2026-04-22 14:37 | 30.46128 | 115.30149 | 21700 ft | 338 kts | 250° |
| 2026-04-22 14:37 | 30.45605 | 115.27509 | 21712 ft | 337 kts | 266° |
| 2026-04-22 14:37 | 30.45738 | 115.24800 | 21723 ft | 339 kts | 278° |
| 2026-04-22 14:38 | 30.46441 | 115.22219 | 21708 ft | 344 kts | 293° |
| 2026-04-22 14:38 | 30.47734 | 115.19862 | 21720 ft | 348 kts | 301° |
| 2026-04-22 14:38 | 30.49190 | 115.17609 | 21715 ft | 350 kts | 303° |
| 2026-04-22 14:38 | 30.50675 | 115.15374 | 21713 ft | 350 kts | 303° |
| 2026-04-22 14:39 | 30.52148 | 115.13128 | 21715 ft | 350 kts | 302° |
| 2026-04-22 14:39 | 30.53605 | 115.10866 | 21711 ft | 350 kts | 302° |
| 2026-04-22 14:39 | 30.55052 | 115.08598 | 21716 ft | 349 kts | 302° |
| 2026-04-22 14:40 | 30.57921 | 115.04040 | 21714 ft | 350 kts | 301° |
| 2026-04-22 14:40 | 30.59341 | 115.01764 | 21702 ft | 343 kts | 301° |
| 2026-04-22 14:40 | 30.60720 | 114.99561 | 21696 ft | 333 kts | 301° |
| 2026-04-22 14:40 | 30.62007 | 114.97345 | 21705 ft | 327 kts | 297° |
| 2026-04-22 14:41 | 30.63165 | 114.95079 | 21712 ft | 327 kts | 295° |
| 2026-04-22 14:41 | 30.64295 | 114.92774 | 21485 ft | 329 kts | 295° |
| 2026-04-22 14:41 | 30.65414 | 114.90482 | 21230 ft | 325 kts | 295° |
| 2026-04-22 14:41 | 30.66538 | 114.88191 | 20679 ft | 329 kts | 296° |
| 2026-04-22 14:42 | 30.67677 | 114.85881 | 20246 ft | 328 kts | 296° |
| 2026-04-22 14:42 | 30.68812 | 114.83592 | 19861 ft | 326 kts | 296° |
| 2026-04-22 14:42 | 30.69946 | 114.81312 | 19485 ft | 325 kts | 297° |
| 2026-04-22 14:42 | 30.71060 | 114.79077 | 19111 ft | 323 kts | 297° |
| 2026-04-22 14:43 | 30.72184 | 114.76821 | 18742 ft | 322 kts | 297° |
| 2026-04-22 14:43 | 30.73305 | 114.74573 | 18357 ft | 321 kts | 297° |
| 2026-04-22 14:43 | 30.74421 | 114.72333 | 17943 ft | 319 kts | 297° |
| 2026-04-22 14:43 | 30.75526 | 114.70113 | 17543 ft | 317 kts | 298° |
| 2026-04-22 14:44 | 30.76629 | 114.67898 | 17169 ft | 315 kts | 298° |
| 2026-04-22 14:44 | 30.77725 | 114.65696 | 16805 ft | 313 kts | 298° |
| 2026-04-22 14:44 | 30.78810 | 114.63513 | 16446 ft | 311 kts | 298° |
| 2026-04-22 14:44 | 30.79887 | 114.61345 | 16082 ft | 309 kts | 298° |
| 2026-04-22 14:45 | 30.80961 | 114.59182 | 15729 ft | 307 kts | 298° |
| 2026-04-22 14:45 | 30.82030 | 114.57030 | 15382 ft | 306 kts | 299° |
| 2026-04-22 14:45 | 30.83092 | 114.54889 | 15038 ft | 305 kts | 299° |
| 2026-04-22 14:45 | 30.84149 | 114.52758 | 14698 ft | 304 kts | 299° |
| 2026-04-22 14:46 | 30.85207 | 114.50623 | 14342 ft | 303 kts | 300° |
| 2026-04-22 14:46 | 30.86254 | 114.48493 | 13989 ft | 303 kts | 297° |
| 2026-04-22 14:46 | 30.86874 | 114.46159 | 13640 ft | 303 kts | 277° |
| 2026-04-22 14:46 | 30.86855 | 114.43728 | 13356 ft | 300 kts | 268° |
| 2026-04-22 14:47 | 30.86683 | 114.41315 | 13015 ft | 298 kts | 266° |
| 2026-04-22 14:47 | 30.86488 | 114.38922 | 12686 ft | 297 kts | 266° |
| 2026-04-22 14:47 | 30.86299 | 114.36573 | 12367 ft | 295 kts | 266° |
| 2026-04-22 14:47 | 30.86113 | 114.34164 | 12041 ft | 294 kts | 266° |
| 2026-04-22 14:48 | 30.85935 | 114.31796 | 11719 ft | 292 kts | 266° |
| 2026-04-22 14:48 | 30.85762 | 114.29443 | 11399 ft | 291 kts | 266° |
| 2026-04-22 14:48 | 30.85592 | 114.27095 | 11084 ft | 290 kts | 266° |
| 2026-04-22 14:48 | 30.85424 | 114.24758 | 10758 ft | 290 kts | 266° |
| 2026-04-22 14:49 | 30.85255 | 114.22415 | 10383 ft | 291 kts | 266° |
| 2026-04-22 14:49 | 30.85088 | 114.20089 | 10225 ft | 285 kts | 266° |
| 2026-04-22 14:49 | 30.84924 | 114.17820 | 10079 ft | 278 kts | 267° |
| 2026-04-22 14:49 | 30.84763 | 114.15604 | 9865 ft | 274 kts | 267° |
| 2026-04-22 14:50 | 30.84533 | 114.13401 | 9540 ft | 275 kts | 255° |
| 2026-04-22 14:50 | 30.83629 | 114.11481 | 9221 ft | 278 kts | 230° |
| 2026-04-22 14:50 | 30.82211 | 114.09909 | 8912 ft | 278 kts | 223° |
| 2026-04-22 14:50 | 30.80764 | 114.08457 | 8609 ft | 278 kts | 222° |
| 2026-04-22 14:51 | 30.79300 | 114.07002 | 8315 ft | 277 kts | 222° |
| 2026-04-22 14:51 | 30.77840 | 114.05542 | 7993 ft | 277 kts | 223° |
| 2026-04-22 14:51 | 30.76380 | 114.04071 | 7676 ft | 278 kts | 223° |
| 2026-04-22 14:51 | 30.74921 | 114.02595 | 7376 ft | 277 kts | 223° |
| 2026-04-22 14:52 | 30.73470 | 114.01122 | 7091 ft | 276 kts | 223° |
| 2026-04-22 14:52 | 30.72024 | 113.99651 | 6808 ft | 276 kts | 223° |
| 2026-04-22 14:52 | 30.70587 | 113.98188 | 6529 ft | 275 kts | 223° |
| 2026-04-22 14:52 | 30.69145 | 113.96720 | 6238 ft | 274 kts | 224° |
| 2026-04-22 14:53 | 30.67719 | 113.95270 | 6054 ft | 269 kts | 224° |
| 2026-04-22 14:53 | 30.66332 | 113.93861 | 5924 ft | 262 kts | 224° |
| 2026-04-22 14:53 | 30.64861 | 113.92666 | 5787 ft | 258 kts | 202° |
| 2026-04-22 14:53 | 30.63124 | 113.92391 | 5678 ft | 252 kts | 172° |
| 2026-04-22 14:54 | 30.61508 | 113.93090 | 5440 ft | 248 kts | 144° |
| 2026-04-22 14:54 | 30.60242 | 113.94408 | 5229 ft | 243 kts | 130° |
| 2026-04-22 14:54 | 30.59123 | 113.95876 | 5014 ft | 241 kts | 128° |
| 2026-04-22 14:54 | 30.58178 | 113.97419 | 4880 ft | 230 kts | 106° |
| 2026-04-22 14:55 | 30.58027 | 113.99152 | 4731 ft | 209 kts | 72° |
| 2026-04-22 14:55 | 30.58616 | 114.00605 | 4515 ft | 194 kts | 47° |
| 2026-04-22 14:55 | 30.59546 | 114.01680 | 4314 ft | 186 kts | 37° |
| 2026-04-22 14:55 | 30.60548 | 114.02630 | 4108 ft | 185 kts | 34° |
| 2026-04-22 14:56 | 30.61536 | 114.03559 | 3905 ft | 180 kts | 36° |
| 2026-04-22 14:56 | 30.62475 | 114.04490 | 3717 ft | 174 kts | 37° |
| 2026-04-22 14:56 | 30.63372 | 114.05401 | 3526 ft | 168 kts | 37° |
| 2026-04-22 14:56 | 30.64242 | 114.06292 | 3339 ft | 166 kts | 38° |
| 2026-04-22 14:57 | 30.65084 | 114.07157 | 3298 ft | 159 kts | 38° |
| 2026-04-22 14:57 | 30.65879 | 114.07976 | 3139 ft | 149 kts | 38° |
| 2026-04-22 14:57 | 30.66665 | 114.08784 | 2921 ft | 150 kts | 38° |
| 2026-04-22 14:57 | 30.67435 | 114.09577 | 2714 ft | 147 kts | 38° |
| 2026-04-22 14:58 | 30.68197 | 114.10360 | 2520 ft | 146 kts | 38° |
| 2026-04-22 14:58 | 30.68957 | 114.11142 | 2326 ft | 146 kts | 39° |
| 2026-04-22 14:58 | 30.69719 | 114.11925 | 2129 ft | 146 kts | 39° |
| 2026-04-22 14:58 | 30.70479 | 114.12708 | 1931 ft | 146 kts | 39° |
| 2026-04-22 14:59 | 30.71235 | 114.13485 | 1731 ft | 144 kts | 39° |
| 2026-04-22 14:59 | 30.71986 | 114.14258 | 1530 ft | 144 kts | 39° |
| 2026-04-22 14:59 | 30.72738 | 114.15031 | 1343 ft | 145 kts | 39° |
| 2026-04-22 14:59 | 30.73490 | 114.15805 | 1138 ft | 144 kts | 39° |
| 2026-04-22 15:00 | 30.73677 | 114.15997 | 1089 ft | 144 kts | 39° |
| 2026-04-22 15:00 | 30.74122 | 114.16455 | 969 ft | 146 kts | 40° |
| 2026-04-22 15:00 | 30.74857 | 114.17210 | 770 ft | 148 kts | 40° |
| 2026-04-22 15:02 | 30.75067 | 114.17427 | 713 ft | 148 kts | 40° |
| 2026-04-22 15:02 | 30.75848 | 114.18230 | 513 ft | 148 kts | 41° |
| 2026-04-22 15:03 | 30.76613 | 114.19019 | 322 ft | 147 kts | 40° |
| 2026-04-22 15:03 | 30.77372 | 114.19793 | 115 ft | 146 kts | 41° |
| 2026-04-22 15:03 | 30.78068 | 114.20492 | 111 ft | 119 kts | 44° |
| 2026-04-22 15:03 | 30.78522 | 114.20968 | 112 ft | 54 kts | 42° |
| 2026-04-22 15:04 | 30.78669 | 114.21199 | 113 ft | 25 kts | 68° |
| 2026-04-22 15:04 | 30.78704 | 114.21317 | 114 ft | 13 kts | 71° |
| 2026-04-22 15:04 | 30.78734 | 114.21415 | 114 ft | 13 kts | 70° |
| 2026-04-22 15:04 | 30.78770 | 114.21487 | 114 ft | 8 kts | 43° |
| 2026-04-22 15:05 | 30.78809 | 114.21529 | 115 ft | 8 kts | 42° |
| 2026-04-22 15:05 | 30.78847 | 114.21569 | 116 ft | 7 kts | 42° |
| 2026-04-22 15:05 | 30.78884 | 114.21605 | 113 ft | 6 kts | 38° |
| 2026-04-22 15:05 | 30.78908 | 114.21644 | 111 ft | 6 kts | 81° |
| 2026-04-22 15:06 | 30.78901 | 114.21675 | 114 ft | 6 kts | 116° |
| 2026-04-22 15:06 | 30.78886 | 114.21697 | 114 ft | 2 kts | 129° |
| 2026-04-22 15:06 | 30.78876 | 114.21711 | 115 ft | 2 kts | 129° |
| 2026-04-22 15:06 | 30.78866 | 114.21725 | 116 ft | 2 kts | 129° |
| 2026-04-22 15:07 | 30.78857 | 114.21738 | 114 ft | 2 kts | 129° |
| 2026-04-22 15:07 | 30.78850 | 114.21754 | 113 ft | 2 kts | 103° |
| 2026-04-22 15:07 | 30.78852 | 114.21775 | 114 ft | 3 kts | 70° |
| 2026-04-22 15:07 | 30.78865 | 114.21794 | 111 ft | 3 kts | 45° |
| 2026-04-22 15:08 | 30.78881 | 114.21812 | 116 ft | 3 kts | 42° |
| 2026-04-22 15:08 | 30.78897 | 114.21828 | 122 ft | 3 kts | 42° |
| 2026-04-22 15:08 | 30.78907 | 114.21839 | 107 ft | 3 kts | 41° |
| 2026-04-22 15:08 | 30.78928 | 114.21860 | 114 ft | 3 kts | 41° |
| 2026-04-22 15:09 | 30.78936 | 114.21881 | 116 ft | 3 kts | 90° |
| 2026-04-22 15:09 | 30.78928 | 114.21895 | 116 ft | 3 kts | 130° |
| 2026-04-22 15:09 | 30.78908 | 114.21923 | 114 ft | 3 kts | 130° |
| 2026-04-22 15:09 | 30.78898 | 114.21937 | 114 ft | 2 kts | 131° |
| 2026-04-22 15:10 | 30.78889 | 114.21948 | 116 ft | 1 kts | 131° |
| 2026-04-22 15:10 | 30.78888 | 114.21950 | 114 ft | 0 kts | 131° |